sensor_id;sensor_type;location;lat;lon;timestamp;pressure;altitude;pressure_sealevel;temperature;humidity
4981;BME280;2507;50.392;7.482;2023-03-13T00:01:56;99936.06;;;12.68;62.89
4981;BME280;2507;50.392;7.482;2023-03-13T00:04:22;99930.13;;;12.75;63.06
4981;BME280;2507;50.392;7.482;2023-03-13T00:06:47;99933.16;;;12.80;62.91
4981;BME280;2507;50.392;7.482;2023-03-13T00:09:14;99919.84;;;12.91;62.65
4981;BME280;2507;50.392;7.482;2023-03-13T00:11:40;99919.97;;;13.18;61.71
4981;BME280;2507;50.392;7.482;2023-03-13T00:14:06;99915.28;;;13.12;62.17
4981;BME280;2507;50.392;7.482;2023-03-13T00:16:32;99900.13;;;13.33;61.37
4981;BME280;2507;50.392;7.482;2023-03-13T00:19:02;99906.38;;;13.32;61.49
4981;BME280;2507;50.392;7.482;2023-03-13T00:21:29;99895.63;;;13.44;61.23
4981;BME280;2507;50.392;7.482;2023-03-13T00:23:54;99887.72;;;13.44;61.13
4981;BME280;2507;50.392;7.482;2023-03-13T00:26:22;99874.81;;;13.50;61.06
4981;BME280;2507;50.392;7.482;2023-03-13T00:28:48;99877.78;;;13.74;60.40
4981;BME280;2507;50.392;7.482;2023-03-13T00:31:15;99877.69;;;13.57;61.30
4981;BME280;2507;50.392;7.482;2023-03-13T00:33:44;99876.22;;;13.45;61.35
4981;BME280;2507;50.392;7.482;2023-03-13T00:36:12;99856.66;;;13.47;61.48
4981;BME280;2507;50.392;7.482;2023-03-13T00:38:39;99868.16;;;13.46;61.37
4981;BME280;2507;50.392;7.482;2023-03-13T00:41:13;99863.75;;;13.47;61.71
4981;BME280;2507;50.392;7.482;2023-03-13T00:43:41;99859.22;;;13.84;60.24
4981;BME280;2507;50.392;7.482;2023-03-13T00:46:07;99845.66;;;13.79;60.42
4981;BME280;2507;50.392;7.482;2023-03-13T00:48:32;99846.88;;;13.84;60.02
4981;BME280;2507;50.392;7.482;2023-03-13T00:50:58;99830.34;;;13.65;60.68
4981;BME280;2507;50.392;7.482;2023-03-13T00:53:23;99824.78;;;13.68;60.85
4981;BME280;2507;50.392;7.482;2023-03-13T00:55:56;99826.34;;;13.61;61.38
4981;BME280;2507;50.392;7.482;2023-03-13T00:58:23;99833.84;;;13.83;60.65
4981;BME280;2507;50.392;7.482;2023-03-13T01:00:49;99802.47;;;13.62;61.24
4981;BME280;2507;50.392;7.482;2023-03-13T01:03:15;99799.06;;;13.52;61.94
4981;BME280;2507;50.392;7.482;2023-03-13T01:05:40;99798.19;;;13.61;61.74
4981;BME280;2507;50.392;7.482;2023-03-13T01:08:05;99788.91;;;13.57;61.84
4981;BME280;2507;50.392;7.482;2023-03-13T01:10:31;99782.53;;;13.77;61.11
4981;BME280;2507;50.392;7.482;2023-03-13T01:12:56;99781.78;;;13.85;61.32
4981;BME280;2507;50.392;7.482;2023-03-13T01:15:21;99772.50;;;13.81;61.44
4981;BME280;2507;50.392;7.482;2023-03-13T01:17:48;99775.63;;;13.94;61.32
4981;BME280;2507;50.392;7.482;2023-03-13T01:20:13;99768.81;;;13.91;61.64
4981;BME280;2507;50.392;7.482;2023-03-13T01:22:38;99760.31;;;13.80;61.55
4981;BME280;2507;50.392;7.482;2023-03-13T01:25:04;99758.50;;;13.80;61.87
4981;BME280;2507;50.392;7.482;2023-03-13T01:27:29;99750.72;;;13.79;62.10
4981;BME280;2507;50.392;7.482;2023-03-13T01:29:54;99745.75;;;14.11;61.37
4981;BME280;2507;50.392;7.482;2023-03-13T01:32:20;99741.47;;;13.92;61.92
4981;BME280;2507;50.392;7.482;2023-03-13T01:34:45;99744.34;;;13.81;62.37
4981;BME280;2507;50.392;7.482;2023-03-13T01:37:11;99742.44;;;13.91;62.32
4981;BME280;2507;50.392;7.482;2023-03-13T01:39:36;99738.47;;;14.05;62.18
4981;BME280;2507;50.392;7.482;2023-03-13T01:42:03;99731.78;;;14.18;61.89
4981;BME280;2507;50.392;7.482;2023-03-13T01:44:28;99719.47;;;14.01;62.47
4981;BME280;2507;50.392;7.482;2023-03-13T01:46:54;99692.78;;;14.04;62.71
4981;BME280;2507;50.392;7.482;2023-03-13T01:49:30;99696.97;;;14.15;62.38
4981;BME280;2507;50.392;7.482;2023-03-13T01:52:09;99715.69;;;14.21;62.51
4981;BME280;2507;50.392;7.482;2023-03-13T01:54:46;99704.88;;;14.15;62.81
4981;BME280;2507;50.392;7.482;2023-03-13T01:57:29;99705.34;;;13.93;64.00
4981;BME280;2507;50.392;7.482;2023-03-13T02:00:25;99682.06;;;14.06;63.59
4981;BME280;2507;50.392;7.482;2023-03-13T02:02:54;99687.25;;;14.15;63.70
4981;BME280;2507;50.392;7.482;2023-03-13T02:05:24;99669.47;;;14.17;63.53
4981;BME280;2507;50.392;7.482;2023-03-13T02:08:03;99664.03;;;14.19;63.59
4981;BME280;2507;50.392;7.482;2023-03-13T02:10:33;99654.25;;;14.11;63.97
4981;BME280;2507;50.392;7.482;2023-03-13T02:13:02;99665.44;;;14.05;64.61
4981;BME280;2507;50.392;7.482;2023-03-13T02:15:29;99651.84;;;14.00;65.06
4981;BME280;2507;50.392;7.482;2023-03-13T02:17:55;99652.25;;;13.88;65.88
4981;BME280;2507;50.392;7.482;2023-03-13T02:20:20;99646.16;;;13.70;66.86
4981;BME280;2507;50.392;7.482;2023-03-13T02:22:57;99634.34;;;13.74;66.99
4981;BME280;2507;50.392;7.482;2023-03-13T02:25:41;99639.69;;;13.64;67.67
4981;BME280;2507;50.392;7.482;2023-03-13T02:28:11;99620.25;;;13.65;68.02
4981;BME280;2507;50.392;7.482;2023-03-13T02:30:38;99619.63;;;13.71;67.85
4981;BME280;2507;50.392;7.482;2023-03-13T02:33:06;99619.13;;;13.68;68.26
4981;BME280;2507;50.392;7.482;2023-03-13T02:35:32;99607.22;;;13.64;68.65
4981;BME280;2507;50.392;7.482;2023-03-13T02:38:01;99610.69;;;13.64;68.81
4981;BME280;2507;50.392;7.482;2023-03-13T02:40:34;99602.22;;;13.78;68.61
4981;BME280;2507;50.392;7.482;2023-03-13T02:43:05;99593.78;;;13.75;69.05
4981;BME280;2507;50.392;7.482;2023-03-13T02:45:31;99597.50;;;13.64;69.57
4981;BME280;2507;50.392;7.482;2023-03-13T02:47:56;99594.75;;;13.48;70.65
4981;BME280;2507;50.392;7.482;2023-03-13T02:50:22;99582.41;;;13.49;70.65
4981;BME280;2507;50.392;7.482;2023-03-13T02:52:50;99589.66;;;13.55;70.86
4981;BME280;2507;50.392;7.482;2023-03-13T02:55:23;99577.59;;;13.70;70.24
4981;BME280;2507;50.392;7.482;2023-03-13T02:57:50;99584.16;;;13.83;69.64
4981;BME280;2507;50.392;7.482;2023-03-13T03:00:16;99589.44;;;13.83;69.63
4981;BME280;2507;50.392;7.482;2023-03-13T03:02:43;99581.75;;;13.72;69.79
4981;BME280;2507;50.392;7.482;2023-03-13T03:05:09;99587.47;;;13.68;70.31
4981;BME280;2507;50.392;7.482;2023-03-13T03:07:34;99582.88;;;13.70;70.87
4981;BME280;2507;50.392;7.482;2023-03-13T03:10:00;99581.09;;;13.70;70.77
4981;BME280;2507;50.392;7.482;2023-03-13T03:12:25;99574.28;;;13.68;71.02
4981;BME280;2507;50.392;7.482;2023-03-13T03:14:51;99567.03;;;13.62;71.06
4981;BME280;2507;50.392;7.482;2023-03-13T03:17:16;99576.09;;;13.85;71.04
4981;BME280;2507;50.392;7.482;2023-03-13T03:19:41;99578.41;;;13.88;70.51
4981;BME280;2507;50.392;7.482;2023-03-13T03:22:06;99570.53;;;13.70;71.20
4981;BME280;2507;50.392;7.482;2023-03-13T03:24:32;99584.56;;;13.71;71.70
4981;BME280;2507;50.392;7.482;2023-03-13T03:26:57;99572.56;;;13.59;72.31
4981;BME280;2507;50.392;7.482;2023-03-13T03:29:22;99554.72;;;13.70;71.80
4981;BME280;2507;50.392;7.482;2023-03-13T03:31:47;99556.88;;;13.75;71.83
4981;BME280;2507;50.392;7.482;2023-03-13T03:34:13;99557.72;;;13.75;71.78
4981;BME280;2507;50.392;7.482;2023-03-13T03:36:38;99556.00;;;13.66;72.51
4981;BME280;2507;50.392;7.482;2023-03-13T03:39:03;99551.00;;;13.81;72.08
4981;BME280;2507;50.392;7.482;2023-03-13T03:41:29;99536.00;;;13.81;71.95
4981;BME280;2507;50.392;7.482;2023-03-13T03:43:55;99537.88;;;13.89;71.82
4981;BME280;2507;50.392;7.482;2023-03-13T03:46:20;99521.72;;;13.92;71.42
4981;BME280;2507;50.392;7.482;2023-03-13T03:48:45;99543.06;;;14.06;71.20
4981;BME280;2507;50.392;7.482;2023-03-13T03:51:14;99530.13;;;14.21;70.83
4981;BME280;2507;50.392;7.482;2023-03-13T03:53:39;99548.09;;;14.17;71.18
4981;BME280;2507;50.392;7.482;2023-03-13T03:56:04;99555.34;;;13.90;72.02
4981;BME280;2507;50.392;7.482;2023-03-13T03:58:30;99548.69;;;13.78;73.00
4981;BME280;2507;50.392;7.482;2023-03-13T04:00:56;99563.41;;;13.88;72.85
4981;BME280;2507;50.392;7.482;2023-03-13T04:03:22;99536.34;;;13.86;73.16
4981;BME280;2507;50.392;7.482;2023-03-13T04:05:48;99512.78;;;13.85;73.47
4981;BME280;2507;50.392;7.482;2023-03-13T04:08:13;99484.88;;;14.08;72.31
4981;BME280;2507;50.392;7.482;2023-03-13T04:10:38;99478.72;;;14.33;71.36
4981;BME280;2507;50.392;7.482;2023-03-13T04:13:04;99500.84;;;14.40;71.44
4981;BME280;2507;50.392;7.482;2023-03-13T04:15:29;99518.19;;;14.09;72.45
4981;BME280;2507;50.392;7.482;2023-03-13T04:17:54;99510.09;;;13.77;74.21
4981;BME280;2507;50.392;7.482;2023-03-13T04:20:20;99509.22;;;13.94;73.52
4981;BME280;2507;50.392;7.482;2023-03-13T04:22:45;99516.59;;;13.90;73.91
4981;BME280;2507;50.392;7.482;2023-03-13T04:25:11;99498.03;;;14.00;73.73
4981;BME280;2507;50.392;7.482;2023-03-13T04:27:36;99476.84;;;14.17;72.81
4981;BME280;2507;50.392;7.482;2023-03-13T04:30:02;99463.44;;;14.11;73.24
4981;BME280;2507;50.392;7.482;2023-03-13T04:32:28;99462.97;;;14.15;72.74
4981;BME280;2507;50.392;7.482;2023-03-13T04:34:54;99472.78;;;13.97;73.70
4981;BME280;2507;50.392;7.482;2023-03-13T04:37:19;99452.63;;;13.88;74.12
4981;BME280;2507;50.392;7.482;2023-03-13T04:39:44;99458.06;;;13.87;74.82
4981;BME280;2507;50.392;7.482;2023-03-13T04:42:10;99443.00;;;14.05;74.23
4981;BME280;2507;50.392;7.482;2023-03-13T04:44:36;99434.91;;;14.06;74.05
4981;BME280;2507;50.392;7.482;2023-03-13T04:47:01;99425.53;;;14.12;74.24
4981;BME280;2507;50.392;7.482;2023-03-13T04:49:27;99399.94;;;14.04;74.24
4981;BME280;2507;50.392;7.482;2023-03-13T04:51:52;99397.97;;;14.06;74.38
4981;BME280;2507;50.392;7.482;2023-03-13T04:54:17;99378.88;;;14.20;74.34
4981;BME280;2507;50.392;7.482;2023-03-13T04:56:42;99410.53;;;14.12;74.65
4981;BME280;2507;50.392;7.482;2023-03-13T04:59:10;99419.25;;;14.05;75.42
4981;BME280;2507;50.392;7.482;2023-03-13T05:01:35;99434.59;;;14.09;75.24
4981;BME280;2507;50.392;7.482;2023-03-13T05:04:01;99437.59;;;14.14;75.45
4981;BME280;2507;50.392;7.482;2023-03-13T05:06:26;99440.19;;;14.06;76.47
4981;BME280;2507;50.392;7.482;2023-03-13T05:08:51;99436.38;;;14.01;76.76
4981;BME280;2507;50.392;7.482;2023-03-13T05:11:17;99434.19;;;13.96;77.00
4981;BME280;2507;50.392;7.482;2023-03-13T05:13:42;99430.59;;;13.97;77.18
4981;BME280;2507;50.392;7.482;2023-03-13T05:16:07;99416.78;;;14.03;76.90
4981;BME280;2507;50.392;7.482;2023-03-13T05:18:33;99407.91;;;14.12;76.61
4981;BME280;2507;50.392;7.482;2023-03-13T05:20:58;99399.47;;;14.17;76.27
4981;BME280;2507;50.392;7.482;2023-03-13T05:23:23;99389.25;;;14.14;76.71
4981;BME280;2507;50.392;7.482;2023-03-13T05:25:49;99379.84;;;14.11;76.83
4981;BME280;2507;50.392;7.482;2023-03-13T05:28:14;99377.25;;;14.19;76.74
4981;BME280;2507;50.392;7.482;2023-03-13T05:30:39;99359.91;;;14.17;76.77
4981;BME280;2507;50.392;7.482;2023-03-13T05:33:05;99356.81;;;14.21;76.57
4981;BME280;2507;50.392;7.482;2023-03-13T05:35:30;99348.38;;;14.18;76.95
4981;BME280;2507;50.392;7.482;2023-03-13T05:37:55;99343.44;;;14.23;77.02
4981;BME280;2507;50.392;7.482;2023-03-13T05:40:20;99357.66;;;14.30;76.96
4981;BME280;2507;50.392;7.482;2023-03-13T05:42:46;99333.56;;;14.33;77.13
4981;BME280;2507;50.392;7.482;2023-03-13T05:45:11;99357.34;;;14.41;76.84
4981;BME280;2507;50.392;7.482;2023-03-13T05:47:37;99361.97;;;14.39;76.87
4981;BME280;2507;50.392;7.482;2023-03-13T05:50:04;99359.66;;;14.44;76.95
4981;BME280;2507;50.392;7.482;2023-03-13T05:52:30;99362.78;;;14.40;77.22
4981;BME280;2507;50.392;7.482;2023-03-13T05:54:55;99361.13;;;14.39;77.36
4981;BME280;2507;50.392;7.482;2023-03-13T05:57:21;99360.97;;;14.32;77.95
4981;BME280;2507;50.392;7.482;2023-03-13T05:59:46;99346.44;;;14.28;78.45
4981;BME280;2507;50.392;7.482;2023-03-13T06:02:11;99350.75;;;14.29;78.31
4981;BME280;2507;50.392;7.482;2023-03-13T06:04:36;99344.13;;;14.33;78.29
4981;BME280;2507;50.392;7.482;2023-03-13T06:07:02;99355.88;;;14.47;77.66
4981;BME280;2507;50.392;7.482;2023-03-13T06:09:27;99335.91;;;14.44;77.80
4981;BME280;2507;50.392;7.482;2023-03-13T06:11:53;99353.38;;;14.53;77.44
4981;BME280;2507;50.392;7.482;2023-03-13T06:14:18;99363.13;;;14.61;77.26
4981;BME280;2507;50.392;7.482;2023-03-13T06:16:44;99370.56;;;14.73;76.58
4981;BME280;2507;50.392;7.482;2023-03-13T06:19:09;99349.13;;;14.76;76.41
4981;BME280;2507;50.392;7.482;2023-03-13T06:21:34;99387.38;;;14.80;76.50
4981;BME280;2507;50.392;7.482;2023-03-13T06:23:59;99398.31;;;14.85;76.33
4981;BME280;2507;50.392;7.482;2023-03-13T06:26:25;99406.22;;;14.85;76.22
4981;BME280;2507;50.392;7.482;2023-03-13T06:28:50;99408.19;;;14.91;75.99
4981;BME280;2507;50.392;7.482;2023-03-13T06:31:16;99412.16;;;14.95;75.94
4981;BME280;2507;50.392;7.482;2023-03-13T06:33:41;99419.59;;;15.00;75.97
4981;BME280;2507;50.392;7.482;2023-03-13T06:36:07;99428.84;;;14.96;76.09
4981;BME280;2507;50.392;7.482;2023-03-13T06:38:32;99432.28;;;14.96;76.33
4981;BME280;2507;50.392;7.482;2023-03-13T06:40:58;99433.13;;;15.29;75.74
4981;BME280;2507;50.392;7.482;2023-03-13T06:43:23;99431.47;;;15.52;74.48
4981;BME280;2507;50.392;7.482;2023-03-13T06:45:48;99429.13;;;15.57;73.85
4981;BME280;2507;50.392;7.482;2023-03-13T06:48:14;99414.44;;;15.47;73.91
4981;BME280;2507;50.392;7.482;2023-03-13T06:50:40;99430.66;;;15.44;74.27
4981;BME280;2507;50.392;7.482;2023-03-13T06:53:05;99411.50;;;15.42;74.10
4981;BME280;2507;50.392;7.482;2023-03-13T06:55:31;99413.75;;;15.61;73.36
4981;BME280;2507;50.392;7.482;2023-03-13T06:57:56;99408.09;;;15.64;73.45
4981;BME280;2507;50.392;7.482;2023-03-13T07:00:22;99414.53;;;15.69;73.09
4981;BME280;2507;50.392;7.482;2023-03-13T07:02:47;99418.50;;;15.73;72.34
4981;BME280;2507;50.392;7.482;2023-03-13T07:05:13;99425.94;;;15.78;72.52
4981;BME280;2507;50.392;7.482;2023-03-13T07:07:39;99428.22;;;15.81;72.11
4981;BME280;2507;50.392;7.482;2023-03-13T07:10:06;99438.78;;;15.89;71.82
4981;BME280;2507;50.392;7.482;2023-03-13T07:12:33;99442.72;;;16.01;71.45
4981;BME280;2507;50.392;7.482;2023-03-13T07:14:59;99439.75;;;15.96;71.11
4981;BME280;2507;50.392;7.482;2023-03-13T07:17:24;99446.75;;;15.81;71.52
4981;BME280;2507;50.392;7.482;2023-03-13T07:19:49;99445.97;;;15.64;72.00
4981;BME280;2507;50.392;7.482;2023-03-13T07:22:14;99458.69;;;15.61;72.45
4981;BME280;2507;50.392;7.482;2023-03-13T07:24:40;99455.72;;;15.72;72.09
4981;BME280;2507;50.392;7.482;2023-03-13T07:27:05;99454.34;;;15.84;71.48
4981;BME280;2507;50.392;7.482;2023-03-13T07:29:30;99452.84;;;15.89;70.95
4981;BME280;2507;50.392;7.482;2023-03-13T07:31:55;99462.28;;;15.84;70.34
4981;BME280;2507;50.392;7.482;2023-03-13T07:34:21;99464.78;;;15.85;70.28
4981;BME280;2507;50.392;7.482;2023-03-13T07:36:46;99463.47;;;15.81;70.70
4981;BME280;2507;50.392;7.482;2023-03-13T07:39:11;99480.31;;;15.80;70.52
4981;BME280;2507;50.392;7.482;2023-03-13T07:41:37;99476.50;;;15.75;70.97
4981;BME280;2507;50.392;7.482;2023-03-13T07:44:03;99481.81;;;15.75;71.26
4981;BME280;2507;50.392;7.482;2023-03-13T07:46:28;99478.69;;;15.71;71.58
4981;BME280;2507;50.392;7.482;2023-03-13T07:48:53;99482.16;;;15.64;71.65
4981;BME280;2507;50.392;7.482;2023-03-13T07:51:21;99489.09;;;15.73;71.74
4981;BME280;2507;50.392;7.482;2023-03-13T07:53:47;99499.97;;;15.86;71.19
4981;BME280;2507;50.392;7.482;2023-03-13T07:56:18;99500.13;;;15.92;70.59
4981;BME280;2507;50.392;7.482;2023-03-13T07:58:44;99493.22;;;15.83;71.65
4981;BME280;2507;50.392;7.482;2023-03-13T08:03:37;99487.09;;;15.75;71.78
4981;BME280;2507;50.392;7.482;2023-03-13T08:06:05;99486.09;;;15.84;71.77
4981;BME280;2507;50.392;7.482;2023-03-13T08:08:31;99483.13;;;15.87;71.35
4981;BME280;2507;50.392;7.482;2023-03-13T08:11:08;99472.47;;;16.03;70.82
4981;BME280;2507;50.392;7.482;2023-03-13T08:13:33;99463.63;;;16.18;69.14
4981;BME280;2507;50.392;7.482;2023-03-13T08:16:14;99471.72;;;16.25;69.10
4981;BME280;2507;50.392;7.482;2023-03-13T08:18:42;99463.56;;;16.34;68.53
4981;BME280;2507;50.392;7.482;2023-03-13T08:21:11;99450.00;;;16.68;67.23
4981;BME280;2507;50.392;7.482;2023-03-13T08:23:37;99446.25;;;16.85;66.68
4981;BME280;2507;50.392;7.482;2023-03-13T08:26:06;99447.88;;;17.09;65.20
4981;BME280;2507;50.392;7.482;2023-03-13T08:28:33;99441.88;;;17.29;64.75
4981;BME280;2507;50.392;7.482;2023-03-13T08:31:23;99441.72;;;17.46;63.54
4981;BME280;2507;50.392;7.482;2023-03-13T08:33:49;99448.81;;;17.68;63.12
4981;BME280;2507;50.392;7.482;2023-03-13T08:36:23;99454.78;;;17.70;62.26
4981;BME280;2507;50.392;7.482;2023-03-13T08:38:51;99450.97;;;17.87;62.03
4981;BME280;2507;50.392;7.482;2023-03-13T08:41:19;99449.22;;;17.79;62.09
4981;BME280;2507;50.392;7.482;2023-03-13T08:43:45;99449.03;;;17.81;61.76
4981;BME280;2507;50.392;7.482;2023-03-13T08:46:12;99447.00;;;17.83;62.18
4981;BME280;2507;50.392;7.482;2023-03-13T08:48:37;99441.97;;;17.88;62.05
4981;BME280;2507;50.392;7.482;2023-03-13T08:51:11;99429.78;;;18.08;61.38
4981;BME280;2507;50.392;7.482;2023-03-13T08:53:38;99435.47;;;18.05;61.57
4981;BME280;2507;50.392;7.482;2023-03-13T08:56:04;99432.44;;;18.08;61.20
4981;BME280;2507;50.392;7.482;2023-03-13T08:58:30;99435.06;;;18.22;60.55
4981;BME280;2507;50.392;7.482;2023-03-13T09:01:10;99421.13;;;18.35;60.22
4981;BME280;2507;50.392;7.482;2023-03-13T09:03:36;99415.09;;;18.41;59.90
4981;BME280;2507;50.392;7.482;2023-03-13T09:06:02;99423.66;;;18.58;59.27
4981;BME280;2507;50.392;7.482;2023-03-13T09:08:31;99430.47;;;18.31;59.89
4981;BME280;2507;50.392;7.482;2023-03-13T09:11:08;99424.66;;;18.06;60.88
4981;BME280;2507;50.392;7.482;2023-03-13T09:13:37;99432.56;;;17.85;61.68
4981;BME280;2507;50.392;7.482;2023-03-13T09:16:10;99436.94;;;17.78;61.85
4981;BME280;2507;50.392;7.482;2023-03-13T09:18:36;99432.56;;;17.85;61.51
4981;BME280;2507;50.392;7.482;2023-03-13T09:21:06;99433.53;;;17.55;62.73
4981;BME280;2507;50.392;7.482;2023-03-13T09:23:31;99429.63;;;17.28;64.04
4981;BME280;2507;50.392;7.482;2023-03-13T09:25:57;99439.84;;;17.17;64.98
4981;BME280;2507;50.392;7.482;2023-03-13T09:28:23;99437.50;;;16.99;66.38
4981;BME280;2507;50.392;7.482;2023-03-13T09:30:49;99435.75;;;16.92;67.00
4981;BME280;2507;50.392;7.482;2023-03-13T09:33:16;99423.91;;;17.02;66.97
4981;BME280;2507;50.392;7.482;2023-03-13T09:35:41;99422.81;;;17.11;66.70
4981;BME280;2507;50.392;7.482;2023-03-13T09:38:06;99421.91;;;17.04;67.21
4981;BME280;2507;50.392;7.482;2023-03-13T09:40:40;99417.44;;;17.05;67.15
4981;BME280;2507;50.392;7.482;2023-03-13T09:43:20;99414.69;;;17.13;66.83
4981;BME280;2507;50.392;7.482;2023-03-13T09:45:51;99412.13;;;17.05;66.96
4981;BME280;2507;50.392;7.482;2023-03-13T09:48:46;99413.69;;;17.14;66.46
4981;BME280;2507;50.392;7.482;2023-03-13T09:51:23;99406.22;;;17.17;66.41
4981;BME280;2507;50.392;7.482;2023-03-13T09:54:06;99405.50;;;17.23;66.71
4981;BME280;2507;50.392;7.482;2023-03-13T09:56:56;99411.25;;;17.27;66.63
4981;BME280;2507;50.392;7.482;2023-03-13T10:02:20;99411.41;;;17.63;65.79
4981;BME280;2507;50.392;7.482;2023-03-13T10:04:52;99402.16;;;17.59;65.72
4981;BME280;2507;50.392;7.482;2023-03-13T10:07:20;99391.91;;;17.56;66.43
4981;BME280;2507;50.392;7.482;2023-03-13T10:09:45;99384.31;;;17.38;67.12
4981;BME280;2507;50.392;7.482;2023-03-13T10:12:13;99382.88;;;17.27;68.03
4981;BME280;2507;50.392;7.482;2023-03-13T10:14:49;99390.84;;;17.27;68.31
4981;BME280;2507;50.392;7.482;2023-03-13T10:17:31;99391.19;;;17.47;67.45
4981;BME280;2507;50.392;7.482;2023-03-13T10:22:36;99383.69;;;17.65;66.80
4981;BME280;2507;50.392;7.482;2023-03-13T10:27:51;99378.41;;;17.28;69.17
4981;BME280;2507;50.392;7.482;2023-03-13T10:30:32;99378.22;;;17.15;70.20
4981;BME280;2507;50.392;7.482;2023-03-13T10:35:36;99371.50;;;16.90;71.80
4981;BME280;2507;50.392;7.482;2023-03-13T10:38:05;99376.59;;;16.91;72.13
4981;BME280;2507;50.392;7.482;2023-03-13T10:40:32;99368.81;;;16.75;73.00
4981;BME280;2507;50.392;7.482;2023-03-13T10:43:06;99360.19;;;16.73;72.84
4981;BME280;2507;50.392;7.482;2023-03-13T10:45:34;99350.16;;;16.69;73.70
4981;BME280;2507;50.392;7.482;2023-03-13T10:48:20;99353.28;;;16.72;74.04
4981;BME280;2507;50.392;7.482;2023-03-13T10:50:51;99351.03;;;16.61;74.36
4981;BME280;2507;50.392;7.482;2023-03-13T10:53:31;99347.97;;;16.72;74.50
4981;BME280;2507;50.392;7.482;2023-03-13T10:56:07;99338.94;;;16.81;74.61
4981;BME280;2507;50.392;7.482;2023-03-13T10:58:40;99348.00;;;16.87;73.34
4981;BME280;2507;50.392;7.482;2023-03-13T11:01:27;99350.38;;;16.96;73.64
4981;BME280;2507;50.392;7.482;2023-03-13T11:03:55;99338.22;;;16.87;73.19
4981;BME280;2507;50.392;7.482;2023-03-13T11:06:27;99340.81;;;16.73;73.63
4981;BME280;2507;50.392;7.482;2023-03-13T11:09:15;99343.38;;;16.66;74.05
4981;BME280;2507;50.392;7.482;2023-03-13T11:11:54;99340.63;;;16.60;73.71
4981;BME280;2507;50.392;7.482;2023-03-13T11:14:21;99334.72;;;16.72;74.01
4981;BME280;2507;50.392;7.482;2023-03-13T11:16:56;99330.44;;;16.86;72.75
4981;BME280;2507;50.392;7.482;2023-03-13T11:22:16;99326.25;;;16.91;72.30
4981;BME280;2507;50.392;7.482;2023-03-13T11:24:59;99310.63;;;16.96;72.11
4981;BME280;2507;50.392;7.482;2023-03-13T11:35:25;99277.84;;;17.26;71.22
4981;BME280;2507;50.392;7.482;2023-03-13T11:37:55;99282.22;;;17.34;70.63
4981;BME280;2507;50.392;7.482;2023-03-13T11:40:31;99267.03;;;17.57;69.95
4981;BME280;2507;50.392;7.482;2023-03-13T11:46:04;99250.63;;;17.68;68.00
4981;BME280;2507;50.392;7.482;2023-03-13T11:52:30;99244.44;;;17.61;68.60
4981;BME280;2507;50.392;7.482;2023-03-13T11:58:12;99238.91;;;17.77;66.83
4981;BME280;2507;50.392;7.482;2023-03-13T12:05:50;99221.50;;;17.39;67.22
4981;BME280;2507;50.392;7.482;2023-03-13T12:08:35;99224.13;;;17.39;67.23
4981;BME280;2507;50.392;7.482;2023-03-13T12:11:15;99218.91;;;17.46;67.05
4981;BME280;2507;50.392;7.482;2023-03-13T12:14:01;99218.91;;;17.46;67.47
4981;BME280;2507;50.392;7.482;2023-03-13T12:16:39;99200.72;;;17.57;66.79
4981;BME280;2507;50.392;7.482;2023-03-13T12:19:10;99191.72;;;17.94;66.46
4981;BME280;2507;50.392;7.482;2023-03-13T12:21:46;99190.41;;;18.11;65.20
4981;BME280;2507;50.392;7.482;2023-03-13T12:24:24;99181.97;;;18.50;64.22
4981;BME280;2507;50.392;7.482;2023-03-13T12:27:00;99183.13;;;18.68;63.35
4981;BME280;2507;50.392;7.482;2023-03-13T12:32:35;99183.63;;;18.85;61.86
4981;BME280;2507;50.392;7.482;2023-03-13T12:40:32;99173.56;;;18.74;62.68
4981;BME280;2507;50.392;7.482;2023-03-13T12:43:13;99159.09;;;18.83;62.59
4981;BME280;2507;50.392;7.482;2023-03-13T12:45:53;99140.75;;;18.60;62.73
4981;BME280;2507;50.392;7.482;2023-03-13T12:48:41;99161.34;;;18.52;63.06
4981;BME280;2507;50.392;7.482;2023-03-13T12:58:58;99117.84;;;19.93;59.81
4981;BME280;2507;50.392;7.482;2023-03-13T13:01:36;99113.16;;;20.08;59.44
4981;BME280;2507;50.392;7.482;2023-03-13T13:04:06;99098.63;;;19.97;59.80
4981;BME280;2507;50.392;7.482;2023-03-13T13:07:06;99083.03;;;19.68;61.19
4981;BME280;2507;50.392;7.482;2023-03-13T13:09:37;99078.34;;;19.83;61.38
4981;BME280;2507;50.392;7.482;2023-03-13T13:12:24;99060.31;;;19.59;61.60
4981;BME280;2507;50.392;7.482;2023-03-13T13:17:34;99037.78;;;19.94;61.11
4981;BME280;2507;50.392;7.482;2023-03-13T13:20:34;99054.16;;;19.85;61.54
4981;BME280;2507;50.392;7.482;2023-03-13T13:23:23;99043.91;;;20.14;60.57
4981;BME280;2507;50.392;7.482;2023-03-13T13:25:49;99014.59;;;20.14;60.73
4981;BME280;2507;50.392;7.482;2023-03-13T13:30:42;99013.97;;;20.06;60.49
4981;BME280;2507;50.392;7.482;2023-03-13T13:35:42;99015.84;;;20.05;60.06
4981;BME280;2507;50.392;7.482;2023-03-13T13:43:23;99008.09;;;19.65;61.21
4981;BME280;2507;50.392;7.482;2023-03-13T13:45:59;98994.16;;;19.76;61.28
4981;BME280;2507;50.392;7.482;2023-03-13T13:48:28;98995.19;;;19.68;61.22
4981;BME280;2507;50.392;7.482;2023-03-13T13:53:48;98979.22;;;19.36;62.81
4981;BME280;2507;50.392;7.482;2023-03-13T13:56:42;98978.19;;;19.37;63.63
4981;BME280;2507;50.392;7.482;2023-03-13T14:04:53;98950.09;;;18.82;66.29
4981;BME280;2507;50.392;7.482;2023-03-13T14:10:35;98919.75;;;18.50;68.40
4981;BME280;2507;50.392;7.482;2023-03-13T14:13:10;98921.44;;;18.58;68.38
4981;BME280;2507;50.392;7.482;2023-03-13T14:15:36;98921.25;;;18.79;68.35
4981;BME280;2507;50.392;7.482;2023-03-13T14:18:25;98912.09;;;19.14;66.11
4981;BME280;2507;50.392;7.482;2023-03-13T14:21:04;98898.78;;;19.47;64.84
4981;BME280;2507;50.392;7.482;2023-03-13T14:26:15;98869.94;;;19.37;63.51
4981;BME280;2507;50.392;7.482;2023-03-13T14:28:45;98887.72;;;19.04;64.31
4981;BME280;2507;50.392;7.482;2023-03-13T14:31:23;98885.50;;;18.94;64.06
4981;BME280;2507;50.392;7.482;2023-03-13T14:33:49;98868.09;;;19.11;64.34
4981;BME280;2507;50.392;7.482;2023-03-13T14:36:15;98881.38;;;19.24;63.72
4981;BME280;2507;50.392;7.482;2023-03-13T14:38:50;98897.97;;;19.20;63.16
4981;BME280;2507;50.392;7.482;2023-03-13T14:41:36;98870.94;;;19.29;63.17
4981;BME280;2507;50.392;7.482;2023-03-13T14:44:05;98859.28;;;19.24;63.06
4981;BME280;2507;50.392;7.482;2023-03-13T14:46:34;98876.06;;;19.24;62.58
4981;BME280;2507;50.392;7.482;2023-03-13T14:49:18;98880.16;;;19.27;62.82
4981;BME280;2507;50.392;7.482;2023-03-13T14:51:45;98854.97;;;19.56;61.65
4981;BME280;2507;50.392;7.482;2023-03-13T14:59:33;98841.50;;;19.11;62.27
4981;BME280;2507;50.392;7.482;2023-03-13T15:02:09;98834.53;;;19.04;62.87